Plain View, Iowa
Current Conditions -  °F | °C
As of 5:36 AM on Friday 24 Oct 2014 (Local Time) from KDVN Reporting Station
Haze Haze  
Wind Chill: 48°   Ceiling: 300
Heat Index: 48°   Visibility: 1.7mi
Dew Point: 47°   Wind: 0mph
Humidity: 96%   Direction: NA
Pressure: 30.06"   Gusts: NA
Location:  41.6175°N, 90.7599°W
Report Text: KDVN 241036Z AUTO 00000KT 1 3/4SM BR OVC003 09/08 A3006 RMK AO2 T00890083 TSNO
Loading
Personal Weather Stations






























Interactive Weather Map
Tropical Storm Tracking
New forecast layout! Learn more

10-Day Weather Forecast

Advertisements
Track Severe Weather on mobile